x

Barcelona Harbor, Ny (barn6) Weather Station

3:50pm - Wed 20th Aug 2014 All times are CDT. -5 hours from GMT.

  • Wind
    5mph, 6mph gusts
  • Air Temp 74°f
  • Sea Pressure 1013.2mb
  • Barcelona Harbor, Ny
  • Barcelona Harbor, Ny

More Historic Weather Station data

Upgrade to MSW Pro to gain access to the past 30 days of data for over 8000 Wavebouys and Weather Stations around the globe.

Join Pro

Comparision Forecast

View Surf forecast
   
Wed 08/20 3:50pm 5 6 mph 1013.2mb 74f
3:40pm 3 6 mph 1013.2mb 74f
3:30pm 5 6 mph 1012.9mb 75f
3:20pm 3 6 mph 1012.9mb 74f
3:10pm 5 6 mph 1013.2mb 75f
1:00pm 7 9 mph 1013.2mb 76f
12:50pm 5 10 mph 1013.2mb 76f
12:40pm 5 9 mph 1013.2mb 75f
12:30pm 8 11 mph 1013.2mb 75f
12:20pm 7 11 mph 1013.2mb 74f
12:10pm 8 13 mph 1012.9mb 74f
12:00pm 10 14 mph 1012.9mb 74f
11:50am 10 14 mph 1012.9mb 74f
11:40am 8 13 mph 1012.9mb 73f
11:30am 8 14 mph 1012.9mb 73f
11:20am 9 15 mph 1012.9mb 73f
11:10am 11 16 mph 1013.2mb 73f
11:00am 8 14 mph 1013.2mb 73f
10:50am 8 13 mph 1013.2mb 72f
10:40am 7 13 mph 1013.2mb 72f
10:30am 8 14 mph 1013.2mb 72f
10:20am 10 14 mph 1013.2mb 72f
10:10am 10 16 mph 1013.5mb 72f
10:00am 10 15 mph 1013.2mb 72f
9:50am 9 14 mph 1013.2mb 72f
9:40am 9 13 mph 1013.2mb 72f
9:30am 8 14 mph 1013.2mb 72f
9:20am 8 14 mph 1013.2mb 72f
9:10am 7 9 mph 1013.2mb 72f
6:00am 8 10 mph 1011.9mb 69f
5:50am 5 8 mph 1011.9mb 69f
5:40am 6 8 mph 1011.5mb 69f
5:30am 6 9 mph 1011.5mb 70f
5:20am 6 8 mph 1011.5mb 70f
5:10am 6 9 mph 1011.9mb 70f
5:00am 3 8 mph 1011.9mb 70f
4:50am 6 10 mph 1011.5mb 71f
4:40am 11 21 mph 1011.5mb 71f
4:30am 15 26 mph 1011.2mb 71f
4:20am 20 24 mph 1010.8mb 71f
4:10am 13 23 mph 1010.8mb 72f
4:00am 14 20 mph 1010.5mb 72f
3:50am 11 18 mph 1010.5mb 71f
3:40am 13 17 mph 1010.2mb 71f
3:30am 13 18 mph 1010.2mb 70f
3:20am 13 17 mph 1010.2mb 71f
3:10am 9 14 mph 1010.2mb 71f
3:00am 10 17 mph 1010.2mb 70f
2:50am 13 17 mph 1010.2mb 70f
2:40am 14 18 mph 1010.2mb 69f
2:20am 14 20 mph 1010.2mb 69f
2:10am 13 22 mph 1010.2mb 69f
12:00am 8 15 mph 1011.9mb 69f
Tue 08/19 11:50pm 11 16 mph 1011.9mb 69f
11:40pm 10 16 mph 1012.2mb 69f
11:30pm 8 14 mph 1012.2mb 70f
11:20pm 7 10 mph - 70f
11:10pm 8 11 mph 1012.2mb 71f
9:00pm 3 5 mph 1010.8mb 72f
8:00pm 2
mph
1011.2mb 71f
7:05pm 3 11 mph 1010.8mb 72f
6:00pm 9 13 mph - 73f
5:00pm 10 11 mph 1010.5mb 73f
4:50pm 10 11 mph 1010.5mb 73f
4:40pm 9 10 mph 1010.8mb 73f
4:30pm 8 9 mph 1010.8mb 72f
4:20pm 8
mph
1010.8mb 72f
4:10pm 8 9 mph 1010.8mb 72f
4:00pm 8 9 mph 1010.5mb 72f
3:50pm 8
mph
1010.8mb 71f
3:40pm 8 9 mph 1010.8mb 71f
3:30pm 8
mph
1010.8mb 71f
3:20pm 7 8 mph 1011.2mb 71f
3:10pm 8 9 mph 1010.8mb 71f
3:00pm 8 9 mph 1011.2mb 70f
2:50pm 7 9 mph 1011.2mb 70f
2:40pm 8
mph
1011.2mb 70f
2:30pm 7 8 mph 1011.5mb 70f
2:20pm 7
mph
1011.5mb 70f
2:10pm 6 7 mph 1011.9mb 70f
2:00pm 6 7 mph 1011.9mb 70f
1:50pm 6 7 mph 1011.9mb 70f
1:40pm 5 6 mph 1011.9mb 69f
1:30pm 5 6 mph 1012.2mb 69f
1:20pm 3 6 mph 1012.2mb 69f
1:10pm 3 6 mph 1012.2mb 69f
12:20pm 3 8 mph 1012.2mb 69f
11:00am 6 7 mph 1012.2mb 69f
10:50am 6 7 mph 1012.2mb 68f
10:40am 6 8 mph 1012.5mb 68f
10:30am 6 8 mph 1012.2mb 68f
10:20am 7 8 mph 1012.5mb 68f
10:10am 6 7 mph 1012.5mb 68f
10:00am 6 7 mph 1012.2mb 68f
9:50am 6 7 mph 1012.2mb 68f
9:40am 3 5 mph 1012.2mb 68f
9:30am 3 5 mph 1012.2mb 68f
9:27am 3 7 mph 1012.2mb 68f
9:20am 5 6 mph 1011.9mb 68f
9:10am 5 6 mph 1012.2mb 67f
9:00am 5 6 mph 1012.2mb 67f
8:50am 5 7 mph 1011.9mb 67f
8:40am 6
mph
1011.9mb 67f
8:30am 6 7 mph 1011.9mb 67f
8:20am 7 8 mph 1011.9mb 67f
8:10am 6 8 mph 1011.9mb 67f
8:00am 5 7 mph 1011.9mb 67f
7:50am 2 5 mph 1011.9mb 67f
7:40am 3 6 mph 1011.5mb 66f
7:30am 3 7 mph 1011.5mb 66f
7:20am 5 6 mph 1011.9mb 65f
7:10am 6 7 mph 1011.5mb 64f
7:00am 5 10 mph 1011.5mb 64f
5:40am 7 11 mph 1011.2mb 61f
12:00am 5
mph
1011.9mb 62f
Mon 08/18 9:00pm 8 17 mph 1012.2mb 68f
8:50pm 14 20 mph 1012.2mb 69f
8:40pm 16 18 mph 1012.2mb 69f
8:30pm 16 18 mph 1012.2mb 69f
8:20pm 16 18 mph 1012.2mb 69f
8:10pm 16 17 mph 1012.2mb 69f
6:00pm 10 11 mph 1012.2mb 70f
5:50pm 9 10 mph 1012.2mb 70f
5:40pm 10 11 mph 1012.2mb 70f
5:30pm 10 11 mph 1012.5mb 70f
5:20pm 11
mph
1012.2mb 70f
5:10pm 10 13 mph 1012.2mb 70f
5:00pm 13 14 mph 1012.2mb 70f
4:50pm 13 15 mph 1012.2mb 70f
4:40pm 13 14 mph 1012.2mb 70f
4:30pm 11 15 mph 1012.5mb 70f
4:20pm 13 14 mph 1012.5mb 70f
4:10pm 13 14 mph 1012.5mb 70f
1:40pm 15 17 mph 1013.5mb 68f
1:00pm 15 17 mph 1013.9mb 68f
12:50pm 15 17 mph 1013.9mb 67f
12:40pm 15 17 mph - 67f
12:30pm 15 17 mph 1013.9mb 67f
12:20pm 14 16 mph 1013.9mb 67f
12:10pm 14 15 mph 1013.9mb 67f
10:00am 6 8 mph 1014.9mb 65f
9:50am 6 8 mph 1015.2mb 65f
9:00am 8 9 mph 1014.9mb 65f
8:50am 6 7 mph 1014.9mb 65f
8:40am 6 7 mph 1014.9mb 65f
8:30am 6 8 mph 1014.9mb 64f
8:20am 6 7 mph 1015.2mb 64f
8:10am 2 3 mph 1015.2mb 65f
6:00am 6 9 mph 1014.9mb 59f
5:50am 6 8 mph 1015.2mb 59f
5:40am 5 8 mph - 60f
5:30am 7 8 mph 1015.2mb 60f
5:20am 6 7 mph 1014.9mb 60f
5:10am 6 8 mph 1014.9mb 61f
5:00am 7 8 mph 1014.9mb 60f
4:50am 6 8 mph 1014.9mb 61f
4:40am 6 7 mph 1014.9mb 60f
4:30am 7
mph
1014.9mb 61f
4:20am 3 6 mph 1014.9mb 61f
4:10am 3 6 mph 1014.9mb 60f
4:00am 5 6 mph 1014.9mb 60f
3:50am 3 6 mph 1014.9mb 60f
3:40am 3 7 mph 1014.9mb 60f
3:30am 5
mph
1014.9mb 61f
3:20am 5 7 mph 1014.9mb 60f
3:10am 3 5 mph 1014.9mb 61f
3:00am 2 5 mph 1014.9mb 61f
2:50am 3 5 mph 1014.6mb 61f
2:40am 3 6 mph 1014.6mb 61f
2:30am 5 7 mph 1014.6mb 61f
2:20am 3 5 mph 1014.6mb 61f
2:10am 5 6 mph 1014.6mb 60f
2:00am 5 6 mph 1014.9mb 60f
1:50am 5 6 mph 1014.9mb 60f
1:40am 5 6 mph 1015.2mb 61f
1:30am 3 5 mph 1015.2mb 61f
1:20am 3 8 mph 1015.2mb 61f
1:10am 7 8 mph 1015.2mb 60f
Sun 08/17 11:00pm 5 6 mph 1015.9mb 62f
10:50pm 5 7 mph 1015.9mb 61f
10:40pm 7 8 mph 1015.9mb 61f
10:30pm 6 7 mph 1015.9mb 62f
10:20pm 6 8 mph 1015.9mb 62f
10:10pm 5 6 mph 1015.9mb 63f
10:00pm 3 5 mph 1015.9mb 63f
9:50pm 3 6 mph 1015.9mb 63f
9:40pm 5 6 mph 1015.9mb 63f
9:30pm 3 5 mph 1015.9mb 64f
9:20pm 3 6 mph 1015.9mb 63f
9:10pm 3 5 mph 1015.9mb 64f
9:00pm 5
mph
1015.9mb 64f
8:50pm 5 7 mph 1015.9mb 63f
8:40pm 6
mph
1015.9mb 64f
8:30pm 5 6 mph 1015.9mb 64f
8:20pm 5 6 mph 1015.9mb 65f
8:10pm 5 6 mph 1015.6mb 65f
8:00pm 3 5 mph 1015.6mb 66f
7:50pm 5 6 mph 1015.6mb 66f
7:40pm 5
mph
1015.6mb 66f
7:30pm 3
mph
1015.2mb 68f
7:20pm 1 2 mph 1015.2mb 69f
7:10pm  -  mph 1015.2mb 70f
7:00pm  -  mph 1015.2mb 71f
6:50pm  -  mph 1015.2mb 73f
6:40pm  -  mph 1015.2mb 74f
6:30pm  -  mph 1015.2mb 76f
6:20pm  -  mph 1015.2mb 76f
6:10pm  -  2 mph 1015.2mb 75f
6:00pm 1 2 mph 1015.2mb 74f
5:50pm  -  2 mph 1015.2mb 73f
5:40pm 2
mph
1015.6mb 72f
5:30pm 1 2 mph 1015.6mb 72f
5:20pm  -  2 mph 1015.6mb 73f
5:10pm 1 2 mph 1015.6mb 72f
5:00pm 1 2 mph 1015.6mb 72f
4:50pm 1 2 mph 1015.6mb 72f
4:40pm 1 5 mph 1015.6mb 70f
4:30pm 2 3 mph 1015.9mb 70f
4:20pm 2 3 mph 1015.9mb 70f
4:10pm 2 5 mph 1015.9mb 69f
4:00pm 3 5 mph 1015.9mb 69f
3:50pm 3
mph
1015.9mb 69f
3:40pm 2 3 mph 1015.9mb 69f
3:30pm 2 3 mph 1015.9mb 69f
3:20pm 2 3 mph 1015.9mb 70f
3:10pm 1 3 mph 1015.9mb 68f
3:00pm 2 3 mph 1015.9mb 68f
2:50pm 3 6 mph 1015.9mb 67f
2:40pm 5 6 mph 1015.9mb 67f
2:30pm 5 7 mph 1016.3mb 67f
2:20pm 5 8 mph 1016.3mb 67f
2:10pm 6 9 mph 1016.3mb 66f
2:00pm 8 9 mph 1016.3mb 66f
1:50pm 7 8 mph 1016.3mb 66f
1:40pm 6 8 mph 1016.6mb 66f
1:30pm 5 7 mph 1016.6mb 67f
1:20pm 6 7 mph 1016.6mb 66f
1:10pm 5 7 mph 1016.6mb 66f
1:00pm 5 7 mph 1016.6mb 66f
12:50pm 6 8 mph 1016.6mb 66f
12:40pm 6 8 mph 1016.6mb 66f
12:30pm 3 6 mph 1016.6mb 66f
12:20pm 5 7 mph 1016.6mb 66f
12:10pm 5 7 mph 1016.6mb 66f
12:00pm 6 7 mph 1016.6mb 65f
11:50am 5 6 mph 1016.9mb 66f
11:40am 3 6 mph 1016.9mb 65f
11:30am 3 7 mph 1016.9mb 66f
11:20am 3 6 mph 1016.9mb 66f
11:10am 3 6 mph 1016.9mb 65f
Sat 08/16 11:32pm 16 23 mph 1011.5mb 67f